createdAt,value
2018-08-09T00:00:36.178Z,18.80
2018-08-09T00:03:05.366Z,18.70
2018-08-09T00:05:34.115Z,18.70
2018-08-09T00:08:02.823Z,18.90
2018-08-09T00:10:31.623Z,19.00
2018-08-09T00:13:00.313Z,19.00
2018-08-09T00:15:29.003Z,19.00
2018-08-09T00:17:57.701Z,19.00
2018-08-09T00:20:26.378Z,18.90
2018-08-09T00:22:55.078Z,18.90
2018-08-09T00:25:23.796Z,18.80
2018-08-09T00:27:52.484Z,18.80
2018-08-09T00:30:21.171Z,18.70
2018-08-09T00:32:49.961Z,18.70
2018-08-09T00:35:18.622Z,18.80
2018-08-09T00:37:47.276Z,19.00
2018-08-09T00:40:15.995Z,19.10
2018-08-09T00:42:44.684Z,19.20
2018-08-09T00:45:13.376Z,19.20
2018-08-09T00:47:42.147Z,19.20
2018-08-09T00:50:10.932Z,19.10
2018-08-09T00:52:43.883Z,19.00
2018-08-09T00:55:12.643Z,18.90
2018-08-09T00:57:43.323Z,18.80
2018-08-09T01:00:11.993Z,18.80
2018-08-09T01:02:40.655Z,18.70
2018-08-09T01:05:09.355Z,18.50
2018-08-09T01:07:38.051Z,18.40
2018-08-09T01:10:06.823Z,18.40
2018-08-09T01:12:35.496Z,18.40
2018-08-09T01:15:04.416Z,18.30
2018-08-09T01:17:33.146Z,18.30
2018-08-09T01:20:02.091Z,18.30
2018-08-09T01:22:30.794Z,18.40
2018-08-09T01:24:59.477Z,18.50
2018-08-09T01:27:28.189Z,18.40
2018-08-09T01:29:56.911Z,18.40
2018-08-09T01:32:25.604Z,18.40
2018-08-09T01:34:54.342Z,18.40
2018-08-09T01:37:22.971Z,18.40
2018-08-09T01:39:51.638Z,18.50
2018-08-09T01:42:36.980Z,18.50
2018-08-09T01:45:05.773Z,18.50
2018-08-09T01:47:34.610Z,18.50
2018-08-09T01:50:03.397Z,18.50
2018-08-09T01:52:32.136Z,18.50
2018-08-09T01:55:00.863Z,18.50
2018-08-09T01:57:29.563Z,18.50
2018-08-09T01:59:58.253Z,18.60
2018-08-09T02:02:27.086Z,18.60
2018-08-09T02:04:55.909Z,18.60
2018-08-09T02:07:24.556Z,18.60
2018-08-09T02:09:53.186Z,18.40
2018-08-09T02:12:21.863Z,18.40
2018-08-09T02:14:50.455Z,18.30
2018-08-09T02:17:19.143Z,18.30
2018-08-09T02:19:47.915Z,18.20
2018-08-09T02:22:16.688Z,18.20
2018-08-09T02:24:45.323Z,18.20
2018-08-09T02:27:14.002Z,18.20
2018-08-09T02:29:42.705Z,18.10
2018-08-09T02:32:11.423Z,18.10
2018-08-09T02:34:40.149Z,18.10
2018-08-09T02:37:08.937Z,18.20
2018-08-09T02:39:37.649Z,18.30
2018-08-09T02:42:06.361Z,18.60
2018-08-09T02:44:35.049Z,18.60
2018-08-09T02:47:03.713Z,18.60
2018-08-09T02:49:32.445Z,18.70
2018-08-09T02:52:01.133Z,18.60
2018-08-09T02:54:29.703Z,18.30
2018-08-09T02:56:58.373Z,18.10
2018-08-09T02:59:27.316Z,17.90
2018-08-09T03:01:55.983Z,17.80
2018-08-09T03:04:24.624Z,17.70
2018-08-09T03:06:53.318Z,17.60
2018-08-09T03:09:21.981Z,17.60
2018-08-09T03:11:50.620Z,17.60
2018-08-09T03:14:20.072Z,17.50
2018-08-09T03:16:48.831Z,17.50
2018-08-09T03:19:17.463Z,17.40
2018-08-09T03:21:46.173Z,17.40
2018-08-09T03:24:14.936Z,17.40
2018-08-09T03:26:43.568Z,17.40
2018-08-09T03:29:12.244Z,17.40
2018-08-09T03:31:41.303Z,17.60
2018-08-09T03:34:10.026Z,17.70
2018-08-09T03:36:38.687Z,17.60
2018-08-09T03:39:10.095Z,17.60
2018-08-09T03:41:38.923Z,17.60
2018-08-09T03:44:07.728Z,17.60
2018-08-09T03:46:36.695Z,17.70
2018-08-09T03:49:05.452Z,17.90
2018-08-09T03:51:34.163Z,17.90
2018-08-09T03:54:02.828Z,17.90
2018-08-09T03:56:31.517Z,17.90
2018-08-09T03:59:00.203Z,17.90
2018-08-09T04:01:28.900Z,17.90
2018-08-09T04:03:57.530Z,17.90
2018-08-09T04:06:26.175Z,17.90
2018-08-09T04:08:54.836Z,17.90
2018-08-09T04:11:23.503Z,17.90
2018-08-09T04:13:52.204Z,17.80
2018-08-09T04:16:20.836Z,17.80
2018-08-09T04:18:49.538Z,17.70
2018-08-09T04:21:18.318Z,17.70
2018-08-09T04:23:47.010Z,17.60
2018-08-09T04:26:15.728Z,17.60
2018-08-09T04:28:44.502Z,17.60
2018-08-09T04:31:13.188Z,17.60
2018-08-09T04:33:41.888Z,17.60
2018-08-09T04:36:10.618Z,17.60
2018-08-09T04:38:39.335Z,17.60
2018-08-09T04:41:08.023Z,17.80
2018-08-09T04:43:36.670Z,17.80
2018-08-09T04:46:05.711Z,17.90
2018-08-09T04:48:34.410Z,17.90
2018-08-09T04:51:03.191Z,18.00
2018-08-09T04:53:31.876Z,18.10
2018-08-09T04:56:00.580Z,18.30
2018-08-09T04:58:29.425Z,18.40
2018-08-09T05:00:58.096Z,18.60
2018-08-09T05:03:26.800Z,18.70
2018-08-09T05:05:55.585Z,18.90
2018-08-09T05:08:24.303Z,19.10
2018-08-09T05:10:52.973Z,19.20
2018-08-09T05:13:21.654Z,19.20
2018-08-09T05:15:50.381Z,19.40
2018-08-09T05:18:19.020Z,19.70
2018-08-09T05:20:48.666Z,19.80
2018-08-09T05:23:17.404Z,20.00
2018-08-09T05:25:46.195Z,20.20
2018-08-09T05:28:14.908Z,20.30
2018-08-09T05:30:43.601Z,20.40
2018-08-09T05:33:12.301Z,20.50
2018-08-09T05:35:41.091Z,20.70
2018-08-09T05:38:09.808Z,20.90
2018-08-09T05:40:38.521Z,21.00
2018-08-09T05:43:07.363Z,21.00
2018-08-09T05:45:36.024Z,21.20
2018-08-09T05:48:05.678Z,21.40
2018-08-09T05:50:34.496Z,21.50
2018-08-09T05:53:03.251Z,21.50
2018-08-09T05:55:32.014Z,21.80
2018-08-09T05:58:00.680Z,21.90
2018-08-09T06:00:29.346Z,22.20
2018-08-09T06:02:58.051Z,22.20
2018-08-09T06:05:26.735Z,22.10
2018-08-09T06:07:55.525Z,22.10
2018-08-09T06:10:24.185Z,22.30
2018-08-09T06:12:52.870Z,22.30
2018-08-09T06:15:21.583Z,22.50
2018-08-09T06:17:50.312Z,22.70
2018-08-09T06:20:19.289Z,22.90
2018-08-09T06:22:47.948Z,22.70
2018-08-09T06:25:16.668Z,23.00
2018-08-09T06:27:45.572Z,23.20
2018-08-09T06:30:14.370Z,23.40
2018-08-09T06:32:43.116Z,23.70
2018-08-09T06:35:11.753Z,24.00
2018-08-09T06:37:40.388Z,24.00
2018-08-09T06:40:12.522Z,24.20
2018-08-09T06:42:42.430Z,24.50
2018-08-09T06:45:11.218Z,24.60
2018-08-09T06:47:40.527Z,24.70
2018-08-09T06:50:10.561Z,24.70
2018-08-09T06:52:39.312Z,24.60
2018-08-09T06:55:08.008Z,25.00
2018-08-09T06:57:36.710Z,25.30
2018-08-09T07:00:09.996Z,25.20
2018-08-09T07:02:38.700Z,25.40
2018-08-09T07:05:07.674Z,25.70
2018-08-09T07:07:36.430Z,25.70
2018-08-09T07:10:07.330Z,25.60
2018-08-09T07:12:36.050Z,25.60
2018-08-09T07:15:08.307Z,25.90
2018-08-09T07:17:37.027Z,26.20
2018-08-09T07:20:07.000Z,26.40
2018-08-09T07:22:36.011Z,26.50
2018-08-09T07:25:05.448Z,26.50
2018-08-09T07:27:34.570Z,26.70
2018-08-09T07:30:04.482Z,26.90
2018-08-09T07:32:33.227Z,27.00
2018-08-09T07:35:03.003Z,26.80
2018-08-09T07:37:31.703Z,26.80
2018-08-09T07:40:00.338Z,27.20
2018-08-09T07:42:29.017Z,27.30
2018-08-09T07:44:58.643Z,27.80
2018-08-09T07:47:27.337Z,28.00
2018-08-09T07:49:56.024Z,28.20
2018-08-09T07:52:24.672Z,28.10
2018-08-09T07:54:53.313Z,28.40
2018-08-09T07:57:21.970Z,28.70
2018-08-09T07:59:50.597Z,28.90
2018-08-09T08:02:19.250Z,28.70
2018-08-09T08:04:47.917Z,28.70
2018-08-09T08:07:17.531Z,28.80
2018-08-09T08:09:46.153Z,29.00
2018-08-09T08:12:14.766Z,29.00
2018-08-09T08:14:43.540Z,29.10
2018-08-09T08:17:12.331Z,29.30
2018-08-09T08:19:41.014Z,29.60
2018-08-09T08:22:09.815Z,29.70
2018-08-09T08:24:38.473Z,30.00
2018-08-09T08:27:07.225Z,30.30
2018-08-09T08:29:35.938Z,30.60
2018-08-09T08:32:04.906Z,30.80
2018-08-09T08:34:34.255Z,30.60
2018-08-09T08:37:02.930Z,30.70
2018-08-09T08:39:31.559Z,31.30
2018-08-09T08:42:00.268Z,31.40
2018-08-09T08:44:29.033Z,31.60
2018-08-09T08:46:57.771Z,31.40
2018-08-09T08:49:26.458Z,31.70
2018-08-09T08:51:55.236Z,31.80
2018-08-09T08:54:23.985Z,31.80
2018-08-09T08:56:52.741Z,31.80
2018-08-09T08:59:21.424Z,32.00
2018-08-09T09:01:50.154Z,32.40
2018-08-09T09:04:18.803Z,32.80
2018-08-09T09:06:47.650Z,33.20
2018-08-09T09:09:16.339Z,33.00
2018-08-09T09:11:45.061Z,33.20
2018-08-09T09:14:13.807Z,33.20
2018-08-09T09:16:42.479Z,33.50
2018-08-09T09:19:11.149Z,33.50
2018-08-09T09:21:39.778Z,33.60
2018-08-09T09:24:08.536Z,33.60
2018-08-09T09:26:37.377Z,33.80
2018-08-09T09:29:06.098Z,33.90
2018-08-09T09:31:35.221Z,33.70
2018-08-09T09:34:04.060Z,33.60
2018-08-09T09:36:32.693Z,34.10
2018-08-09T09:39:01.547Z,34.10
2018-08-09T09:41:30.202Z,34.30
2018-08-09T09:43:58.886Z,34.50
2018-08-09T09:46:27.601Z,34.60
2018-08-09T09:48:56.308Z,34.80
2018-08-09T09:51:25.013Z,34.90
2018-08-09T09:53:53.706Z,35.20
2018-08-09T09:56:22.405Z,35.20
2018-08-09T09:58:51.090Z,35.40
2018-08-09T10:01:25.583Z,35.40
2018-08-09T10:03:54.934Z,35.50
2018-08-09T10:06:23.854Z,35.60
2018-08-09T10:08:52.949Z,35.70
2018-08-09T10:11:21.764Z,35.40
2018-08-09T10:13:50.532Z,35.50
2018-08-09T10:16:19.258Z,35.80
2018-08-09T10:18:48.033Z,35.70
2018-08-09T10:21:16.699Z,36.10
2018-08-09T10:23:45.413Z,36.00
2018-08-09T10:26:14.131Z,36.40
2018-08-09T10:28:42.875Z,36.20
2018-08-09T10:31:11.501Z,36.00
2018-08-09T10:33:40.201Z,36.10
2018-08-09T10:36:08.948Z,36.10
2018-08-09T10:38:37.598Z,36.20
2018-08-09T10:41:06.364Z,36.60
2018-08-09T10:43:35.009Z,36.80
2018-08-09T10:46:03.690Z,37.00
2018-08-09T10:48:32.350Z,37.00
2018-08-09T10:51:01.331Z,37.00
2018-08-09T10:53:29.962Z,36.90
2018-08-09T10:55:58.609Z,37.30
2018-08-09T10:58:28.137Z,37.40
2018-08-09T11:00:56.879Z,37.60
2018-08-09T11:03:25.549Z,37.40
2018-08-09T11:05:54.354Z,37.70
2018-08-09T11:08:23.004Z,36.80
2018-08-09T11:10:51.772Z,36.90
2018-08-09T11:13:20.521Z,37.10
2018-08-09T11:15:49.503Z,37.20
2018-08-09T11:18:18.706Z,37.60
2018-08-09T11:20:47.471Z,37.40
2018-08-09T11:23:16.173Z,37.50
2018-08-09T11:25:44.836Z,37.60
2018-08-09T11:28:14.461Z,37.60
2018-08-09T11:30:43.209Z,37.90
2018-08-09T11:33:11.934Z,38.10
2018-08-09T11:35:40.753Z,38.30
2018-08-09T11:38:09.483Z,38.30
2018-08-09T11:40:38.673Z,38.60
2018-08-09T11:43:07.475Z,38.70
2018-08-09T11:45:36.187Z,38.60
2018-08-09T11:48:05.080Z,38.10
2018-08-09T11:50:33.868Z,37.60
2018-08-09T11:53:03.096Z,37.30
2018-08-09T11:55:32.454Z,37.30
2018-08-09T11:58:01.609Z,37.60
2018-08-09T12:00:31.454Z,37.60
2018-08-09T12:03:00.161Z,37.70
2018-08-09T12:05:28.982Z,37.70
2018-08-09T12:07:57.690Z,37.60
2018-08-09T12:10:26.331Z,37.40
2018-08-09T12:12:55.049Z,38.00
2018-08-09T12:15:23.814Z,37.60
2018-08-09T12:17:52.683Z,36.40
2018-08-09T12:20:21.541Z,35.80
2018-08-09T12:22:50.701Z,35.60
2018-08-09T12:25:19.534Z,35.50
2018-08-09T12:27:48.233Z,35.00
2018-08-09T12:30:17.215Z,34.60
2018-08-09T12:32:46.196Z,34.40
2018-08-09T12:35:16.059Z,33.90
2018-08-09T12:37:44.837Z,33.90
2018-08-09T12:40:14.749Z,34.00
2018-08-09T12:42:43.444Z,34.10
2018-08-09T12:45:12.961Z,34.10
2018-08-09T12:47:41.757Z,34.30
2018-08-09T12:50:12.610Z,34.20
2018-08-09T12:52:42.490Z,34.90
2018-08-09T12:55:12.541Z,35.60
2018-08-09T12:57:41.369Z,35.70
2018-08-09T13:00:12.938Z,36.20
2018-08-09T13:02:42.152Z,37.20
2018-08-09T13:05:12.190Z,37.80
2018-08-09T13:07:42.229Z,38.00
2018-08-09T13:10:13.746Z,37.90
2018-08-09T13:12:43.191Z,37.30
2018-08-09T13:15:14.086Z,36.90
2018-08-09T13:17:48.429Z,36.40
2018-08-09T13:20:19.738Z,36.70
2018-08-09T13:22:50.302Z,37.20
2018-08-09T13:25:19.280Z,37.30
2018-08-09T13:27:49.214Z,37.30
2018-08-09T13:30:18.398Z,37.40
2018-08-09T13:32:47.253Z,37.70
2018-08-09T13:35:16.933Z,37.80
2018-08-09T13:37:45.838Z,38.00
2018-08-09T13:40:17.705Z,37.60
2018-08-09T13:42:47.153Z,37.60
2018-08-09T13:45:17.557Z,37.50
2018-08-09T13:47:46.406Z,37.40
2018-08-09T13:50:15.249Z,38.20
2018-08-09T13:52:44.268Z,38.20
2018-08-09T13:55:14.594Z,37.70
2018-08-09T13:57:44.777Z,37.80
2018-08-09T14:00:14.311Z,38.10
2018-08-09T14:02:45.315Z,39.00
2018-08-09T14:05:14.143Z,38.40
2018-08-09T14:07:43.487Z,38.10
2018-08-09T14:10:14.284Z,37.90
2018-08-09T14:12:43.097Z,37.80
2018-08-09T14:15:14.524Z,37.70
2018-08-09T14:17:43.277Z,37.70
2018-08-09T14:20:15.273Z,37.70
2018-08-09T14:22:44.242Z,38.20
2018-08-09T14:25:13.519Z,38.20
2018-08-09T14:27:42.467Z,38.20
2018-08-09T14:30:14.093Z,38.40
2018-08-09T14:32:44.040Z,38.70
2018-08-09T14:35:14.765Z,38.70
2018-08-09T14:37:44.441Z,38.50
2018-08-09T14:40:14.923Z,38.10
2018-08-09T14:42:45.671Z,38.10
2018-08-09T14:45:16.218Z,37.80
2018-08-09T14:47:45.158Z,37.90
2018-08-09T14:50:14.044Z,38.00
2018-08-09T14:52:42.992Z,38.00
2018-08-09T14:55:12.864Z,38.00
2018-08-09T14:57:41.960Z,37.90
2018-08-09T15:00:19.646Z,38.20
2018-08-09T15:02:48.809Z,37.80
2018-08-09T15:05:18.490Z,37.60
2018-08-09T15:07:47.952Z,37.60
2018-08-09T15:10:17.610Z,37.80
2018-08-09T15:12:46.576Z,37.90
2018-08-09T15:15:15.330Z,37.10
2018-08-09T15:17:44.762Z,36.60
2018-08-09T15:20:14.042Z,35.70
2018-08-09T15:22:43.021Z,33.50
2018-08-09T15:25:12.211Z,32.30
2018-08-09T15:27:41.006Z,31.70
2018-08-09T15:30:15.188Z,31.50
2018-08-09T15:32:43.969Z,31.70
2018-08-09T15:35:12.889Z,32.00
2018-08-09T15:37:42.029Z,32.10
2018-08-09T15:40:11.793Z,32.30
2018-08-09T15:42:40.620Z,32.30
2018-08-09T15:45:12.314Z,32.60
2018-08-09T15:47:41.529Z,33.00
2018-08-09T15:50:13.574Z,33.10
2018-08-09T15:52:42.541Z,34.00
2018-08-09T15:55:12.062Z,34.00
2018-08-09T15:57:40.852Z,34.00
2018-08-09T16:00:15.902Z,34.00
2018-08-09T16:02:44.968Z,34.00
2018-08-09T16:05:13.774Z,34.00
2018-08-09T16:07:42.804Z,33.90
2018-08-09T16:10:13.773Z,33.60
2018-08-09T16:12:42.806Z,33.50
2018-08-09T16:15:14.619Z,33.20
2018-08-09T16:17:44.354Z,33.00
2018-08-09T16:20:13.151Z,33.00
2018-08-09T16:22:42.747Z,32.90
2018-08-09T16:25:14.851Z,32.90
2018-08-09T16:27:44.197Z,32.80
2018-08-09T16:30:21.621Z,32.60
2018-08-09T16:32:50.555Z,32.60
2018-08-09T16:35:19.511Z,32.40
2018-08-09T16:37:48.611Z,32.30
2018-08-09T16:40:25.702Z,32.30
2018-08-09T16:42:54.801Z,32.30
2018-08-09T16:45:25.277Z,32.40
2018-08-09T16:47:54.894Z,32.70
2018-08-09T16:50:25.477Z,32.80
2018-08-09T16:52:54.781Z,32.70
2018-08-09T16:55:24.556Z,32.50
2018-08-09T16:57:53.677Z,32.10
2018-08-09T17:00:24.033Z,31.60
2018-08-09T17:02:54.771Z,31.40
2018-08-09T17:05:27.301Z,31.20
2018-08-09T17:07:56.468Z,31.00
2018-08-09T17:10:25.896Z,31.00
2018-08-09T17:12:54.726Z,31.00
2018-08-09T17:15:26.708Z,30.90
2018-08-09T17:17:56.391Z,30.90
2018-08-09T17:20:28.159Z,30.70
2018-08-09T17:22:57.361Z,30.60
2018-08-09T17:25:27.850Z,30.60
2018-08-09T17:27:56.734Z,30.60
2018-08-09T17:30:26.794Z,30.50
2018-08-09T17:32:56.708Z,30.40
2018-08-09T17:35:25.608Z,30.30
2018-08-09T17:37:54.911Z,30.30
2018-08-09T17:40:27.581Z,30.10
2018-08-09T17:42:57.179Z,30.10
2018-08-09T17:45:29.243Z,29.90
2018-08-09T17:47:58.321Z,29.80
2018-08-09T17:50:28.126Z,29.70
2018-08-09T17:52:59.454Z,29.70
2018-08-09T17:55:28.938Z,29.60
2018-08-09T17:57:57.758Z,29.50
2018-08-09T18:00:28.971Z,29.40
2018-08-09T18:02:57.851Z,29.30
2018-08-09T18:05:26.653Z,29.20
2018-08-09T18:07:56.341Z,29.20
2018-08-09T18:10:28.464Z,29.10
2018-08-09T18:12:57.239Z,29.00
2018-08-09T18:15:27.633Z,29.00
2018-08-09T18:17:56.915Z,28.90
2018-08-09T18:20:30.411Z,28.90
2018-08-09T18:22:59.521Z,28.70
2018-08-09T18:25:28.206Z,28.70
2018-08-09T18:27:57.151Z,28.60
2018-08-09T18:30:25.839Z,28.50
2018-08-09T18:32:54.655Z,28.60
2018-08-09T18:35:23.404Z,28.50
2018-08-09T18:37:52.172Z,28.40
2018-08-09T18:40:23.879Z,28.30
2018-08-09T18:42:52.956Z,28.30
2018-08-09T18:45:22.313Z,28.40
2018-08-09T18:47:51.124Z,28.30
2018-08-09T18:50:21.583Z,28.20
2018-08-09T18:52:50.424Z,27.80
2018-08-09T18:55:19.916Z,27.80
2018-08-09T18:57:48.951Z,27.80
2018-08-09T19:00:19.818Z,27.80
2018-08-09T19:02:49.203Z,27.60
2018-08-09T19:05:18.249Z,27.40
2018-08-09T19:07:47.276Z,27.50
2018-08-09T19:10:27.192Z,27.40
2018-08-09T19:12:56.121Z,27.20
2018-08-09T19:15:25.687Z,27.10
2018-08-09T19:17:54.631Z,27.20
2018-08-09T19:20:29.157Z,27.10
2018-08-09T19:22:59.325Z,27.00
2018-08-09T19:25:28.203Z,26.90
2018-08-09T19:27:57.195Z,26.80
2018-08-09T19:30:28.090Z,26.60
2018-08-09T19:32:58.101Z,26.50
2018-08-09T19:35:26.909Z,26.30
2018-08-09T19:37:56.311Z,26.10
2018-08-09T19:40:29.822Z,26.10
2018-08-09T19:42:59.401Z,26.10
2018-08-09T19:45:29.033Z,26.10
2018-08-09T19:47:58.382Z,26.10
2018-08-09T19:50:27.985Z,26.00
2018-08-09T19:52:57.187Z,25.80
2018-08-09T19:55:26.875Z,25.70
2018-08-09T19:57:57.151Z,25.60
2018-08-09T20:00:28.481Z,25.50
2018-08-09T20:02:58.151Z,25.30
2018-08-09T20:05:27.969Z,25.30
2018-08-09T20:07:58.025Z,25.20
2018-08-09T20:10:27.105Z,25.20
2018-08-09T20:12:56.094Z,25.20
2018-08-09T20:15:25.051Z,25.10
2018-08-09T20:17:54.064Z,25.00
2018-08-09T20:20:25.490Z,24.90
2018-08-09T20:22:54.448Z,24.80
2018-08-09T20:25:24.239Z,24.80
2018-08-09T20:27:54.179Z,24.80
2018-08-09T20:30:23.059Z,24.80
2018-08-09T20:32:52.824Z,24.70
2018-08-09T20:35:24.134Z,24.60
2018-08-09T20:37:53.360Z,24.50
2018-08-09T20:40:23.014Z,24.40
2018-08-09T20:42:53.195Z,24.20
2018-08-09T20:45:23.757Z,24.10
2018-08-09T20:47:53.168Z,24.10
2018-08-09T20:50:24.799Z,24.10
2018-08-09T20:52:53.675Z,24.10
2018-08-09T20:55:23.145Z,24.10
2018-08-09T20:57:52.850Z,24.10
2018-08-09T21:00:24.566Z,24.10
2018-08-09T21:02:54.825Z,24.10
2018-08-09T21:05:33.382Z,24.10
2018-08-09T21:08:02.487Z,24.10
2018-08-09T21:10:31.563Z,24.10
2018-08-09T21:13:00.682Z,24.10
2018-08-09T21:15:29.843Z,24.00
2018-08-09T21:17:59.798Z,23.90
2018-08-09T21:20:29.064Z,23.80
2018-08-09T21:22:58.012Z,23.80
2018-08-09T21:25:28.570Z,23.90
2018-08-09T21:27:57.532Z,23.80
2018-08-09T21:30:27.941Z,23.60
2018-08-09T21:32:57.734Z,23.60
2018-08-09T21:35:26.807Z,23.50
2018-08-09T21:37:55.727Z,23.60
2018-08-09T21:40:25.004Z,23.50
2018-08-09T21:42:54.019Z,23.50
2018-08-09T21:45:23.013Z,23.60
2018-08-09T21:47:51.922Z,23.60
2018-08-09T21:50:21.765Z,23.50
2018-08-09T21:52:51.123Z,23.50
2018-08-09T21:55:20.063Z,23.40
2018-08-09T21:57:48.855Z,23.40
2018-08-09T22:00:38.594Z,23.30
2018-08-09T22:03:07.472Z,23.20
2018-08-09T22:05:41.631Z,23.10
2018-08-09T22:08:15.938Z,23.10
2018-08-09T22:10:50.261Z,23.10
2018-08-09T22:13:24.549Z,23.00
2018-08-09T22:15:58.846Z,23.00
2018-08-09T22:18:33.324Z,22.90
2018-08-09T22:21:08.159Z,22.80
2018-08-09T22:23:38.463Z,22.70
2018-08-09T22:26:08.702Z,22.60
2018-08-09T22:28:38.336Z,22.50
2018-08-09T22:31:07.280Z,22.40
2018-08-09T22:33:36.120Z,22.30
2018-08-09T22:36:05.855Z,22.30
2018-08-09T22:38:34.718Z,22.30
2018-08-09T22:41:03.815Z,22.30
2018-08-09T22:43:33.195Z,22.50
2018-08-09T22:46:02.027Z,22.50
2018-08-09T22:48:32.165Z,22.50
2018-08-09T22:51:03.578Z,22.40
2018-08-09T22:53:33.088Z,22.30
2018-08-09T22:56:03.603Z,22.40
2018-08-09T22:58:32.351Z,22.30
2018-08-09T23:01:01.688Z,22.30
2018-08-09T23:03:30.474Z,22.20
2018-08-09T23:06:00.312Z,22.20
2018-08-09T23:08:29.106Z,22.20
2018-08-09T23:10:57.945Z,22.20
2018-08-09T23:13:26.689Z,22.20
2018-08-09T23:15:55.451Z,22.20
2018-08-09T23:18:24.163Z,22.10
2018-08-09T23:20:52.866Z,22.00
2018-08-09T23:23:21.623Z,21.90
2018-08-09T23:25:50.416Z,22.00
2018-08-09T23:28:19.203Z,22.00
2018-08-09T23:30:47.923Z,22.00
2018-08-09T23:33:22.576Z,22.00
2018-08-09T23:35:51.540Z,21.90
2018-08-09T23:38:20.359Z,21.90
2018-08-09T23:40:49.054Z,22.00
2018-08-09T23:43:17.791Z,22.00
2018-08-09T23:45:46.980Z,21.90
2018-08-09T23:48:15.836Z,21.80
2018-08-09T23:50:44.646Z,21.80
2018-08-09T23:53:13.453Z,21.70
2018-08-09T23:55:42.700Z,21.70
2018-08-09T23:58:11.456Z,21.70
